Terminal Aerodrome Forecast
Issued by NWS Goodland, KS

Home | Current Version | Previous Version | Text Only | Print | Product List | Glossary On
Versions: 1 2 3 4 5 6 7 8 9 10 11 12 13 14 15 16 17
421
FTUS43 KGLD 171122
TAFGLD
TAF
KGLD 171122Z 1712/1812 23008KT P6SM SKC
     FM171800 21012G19KT P6SM SCT060 SCT180
     FM172300 20010KT P6SM FEW050 SCT180
     FM181100 24006KT P6SM SCT100=

USA.gov is the U.S. government's official web portal to all federal, state and local government web resources and services.